createdAt,value
2019-05-17T00:00:51.523Z,97972.29
2019-05-17T00:01:57.677Z,97965.02
2019-05-17T00:03:00.243Z,97967.77
2019-05-17T00:04:04.267Z,97967.48
2019-05-17T00:05:08.346Z,97963.97
2019-05-17T00:06:10.701Z,97960.58
2019-05-17T00:07:12.973Z,97960.88
2019-05-17T00:08:16.499Z,97957.37
2019-05-17T00:09:20.204Z,97957.66
2019-05-17T00:10:22.706Z,97953.65
2019-05-17T00:11:27.194Z,97952.64
2019-05-17T00:12:32.239Z,97952.93
2019-05-17T00:13:35.376Z,97946.24
2019-05-17T00:14:38.042Z,97954.02
2019-05-17T00:15:40.802Z,97952.69
2019-05-17T00:16:43.415Z,97950.55
2019-05-17T00:17:46.992Z,97948.67
2019-05-17T00:18:50.004Z,97948.17
2019-05-17T00:19:51.697Z,97950.55
2019-05-17T00:20:54.090Z,97947.58
2019-05-17T00:21:57.043Z,97947.58
2019-05-17T00:22:59.558Z,97949.88
2019-05-17T00:24:02.519Z,97947.71
2019-05-17T00:25:07.345Z,97947.92
2019-05-17T00:26:10.223Z,97945.25
2019-05-17T00:27:13.058Z,97945.78
2019-05-17T00:28:16.425Z,97950.59
2019-05-17T00:29:20.117Z,97942.86
2019-05-17T00:30:23.020Z,97940.52
2019-05-17T00:31:26.334Z,97943.70
2019-05-17T00:32:29.026Z,97941.85
2019-05-17T00:33:31.134Z,97939.39
2019-05-17T00:34:33.775Z,97936.55
2019-05-17T00:35:37.554Z,97938.64
2019-05-17T00:36:43.877Z,97943.45
2019-05-17T00:37:46.658Z,97941.82
2019-05-17T00:38:51.631Z,97938.55
2019-05-17T00:39:56.512Z,97941.31
2019-05-17T00:40:58.553Z,97941.15
2019-05-17T00:42:01.349Z,97940.61
2019-05-17T00:43:06.804Z,97936.52
2019-05-17T00:44:09.452Z,97937.14
2019-05-17T00:45:11.961Z,97932.08
2019-05-17T00:46:17.245Z,97933.13
2019-05-17T00:47:20.448Z,97926.56
2019-05-17T00:48:22.668Z,97928.49
2019-05-17T00:49:26.315Z,97932.12
2019-05-17T00:50:28.996Z,97926.86
2019-05-17T00:51:31.471Z,97924.31
2019-05-17T00:52:36.600Z,97924.02
2019-05-17T00:53:39.280Z,97923.59
2019-05-17T00:54:41.427Z,97921.27
2019-05-17T00:55:46.557Z,97919.13
2019-05-17T00:56:48.813Z,97921.80
2019-05-17T00:57:51.475Z,97922.39
2019-05-17T00:58:54.281Z,97922.47
2019-05-17T00:59:58.109Z,97924.02
2019-05-17T01:01:00.872Z,97924.31
2019-05-17T01:02:03.653Z,97924.10
2019-05-17T01:03:07.264Z,97920.17
2019-05-17T01:04:09.537Z,97926.44
2019-05-17T01:05:12.651Z,97929.70
2019-05-17T01:06:16.922Z,97929.78
2019-05-17T01:07:22.043Z,97927.94
2019-05-17T01:08:26.566Z,97930.08
2019-05-17T01:09:28.592Z,97933.88
2019-05-17T01:10:30.953Z,97930.66
2019-05-17T01:11:36.619Z,97924.81
2019-05-17T01:12:38.509Z,97932.00
2019-05-17T01:13:42.896Z,97927.48
2019-05-17T01:14:46.602Z,97934.76
2019-05-17T01:15:49.571Z,97934.76
2019-05-17T01:16:52.139Z,97927.56
2019-05-17T01:17:56.299Z,97933.75
2019-05-17T01:18:59.222Z,97931.37
2019-05-17T01:20:06.842Z,97937.52
2019-05-17T01:21:09.319Z,97937.01
2019-05-17T01:22:11.636Z,97935.97
2019-05-17T01:23:16.531Z,97931.37
2019-05-17T01:24:18.030Z,97937.67
2019-05-17T01:25:21.711Z,97933.96
2019-05-17T01:26:24.008Z,97932.57
2019-05-17T01:27:26.714Z,97926.52
2019-05-17T01:28:28.485Z,97931.91
2019-05-17T01:29:32.327Z,97928.66
2019-05-17T01:30:37.424Z,97925.36
2019-05-17T01:31:39.153Z,97920.92
2019-05-17T01:32:41.661Z,97923.06
2019-05-17T01:33:46.921Z,97925.82
2019-05-17T01:34:48.687Z,97929.53
2019-05-17T01:35:51.066Z,97925.52
2019-05-17T01:36:53.482Z,97927.70
2019-05-17T01:37:56.486Z,97923.59
2019-05-17T01:39:13.161Z,97922.69
2019-05-17T01:40:07.984Z,97919.72
2019-05-17T01:41:10.767Z,97922.18
2019-05-17T01:42:13.886Z,97922.09
2019-05-17T01:43:16.650Z,97924.85
2019-05-17T01:44:19.197Z,97922.39
2019-05-17T01:45:24.291Z,97919.72
2019-05-17T01:46:26.534Z,97920.14
2019-05-17T01:47:29.193Z,97918.51
2019-05-17T01:48:30.951Z,97918.08
2019-05-17T01:49:33.595Z,97913.03
2019-05-17T01:50:37.437Z,97914.88
2019-05-17T01:51:39.817Z,97920.30
2019-05-17T01:52:46.120Z,97914.23
2019-05-17T01:53:48.483Z,97916.16
2019-05-17T01:54:50.279Z,97924.48
2019-05-17T01:55:56.803Z,97914.83
2019-05-17T01:56:59.478Z,97919.75
2019-05-17T01:58:01.749Z,97921.38
2019-05-17T01:59:06.640Z,97924.35
2019-05-17T02:00:11.067Z,97919.59
2019-05-17T02:01:13.109Z,97919.67
2019-05-17T02:02:36.468Z,97926.36
2019-05-17T02:03:38.555Z,97920.80
2019-05-17T02:04:40.960Z,97917.38
2019-05-17T02:05:43.718Z,97914.70
2019-05-17T02:06:46.856Z,97914.70
2019-05-17T02:07:49.591Z,97914.70
2019-05-17T02:08:52.240Z,97917.16
2019-05-17T02:09:56.879Z,97915.61
2019-05-17T02:10:59.192Z,97916.95
2019-05-17T02:12:03.459Z,97913.23
2019-05-17T02:13:06.971Z,97910.55
2019-05-17T02:14:12.399Z,97913.23
2019-05-17T02:15:17.776Z,97910.34
2019-05-17T02:16:21.679Z,97915.47
2019-05-17T02:17:26.596Z,97907.74
2019-05-17T02:18:29.876Z,97904.23
2019-05-17T02:19:32.180Z,97901.85
2019-05-17T02:20:36.953Z,97901.34
2019-05-17T02:21:39.121Z,97902.69
2019-05-17T02:22:41.645Z,97898.97
2019-05-17T02:23:46.761Z,97900.59
2019-05-17T02:24:47.556Z,97901.94
2019-05-17T02:25:50.037Z,97903.59
2019-05-17T02:26:52.600Z,97904.39
2019-05-17T02:27:55.006Z,97906.27
2019-05-17T02:28:57.517Z,97907.91
2019-05-17T02:30:02.594Z,97901.21
2019-05-17T02:31:06.482Z,97905.73
2019-05-17T02:32:12.602Z,97904.47
2019-05-17T02:33:14.596Z,97904.77
2019-05-17T02:34:16.973Z,97902.09
2019-05-17T02:35:22.855Z,97905.89
2019-05-17T02:36:24.793Z,97904.26
2019-05-17T02:37:27.165Z,97905.89
2019-05-17T02:38:32.866Z,97902.70
2019-05-17T02:39:51.907Z,97900.83
2019-05-17T02:40:38.807Z,97901.66
2019-05-17T02:41:43.031Z,97902.25
2019-05-17T02:42:46.079Z,97905.46
2019-05-17T02:43:48.719Z,97900.91
2019-05-17T02:44:53.185Z,97902.25
2019-05-17T02:45:55.850Z,97896.39
2019-05-17T02:46:58.601Z,97896.90
2019-05-17T02:48:03.918Z,97895.05
2019-05-17T02:49:06.696Z,97898.53
2019-05-17T02:50:12.609Z,97896.68
2019-05-17T02:51:14.355Z,97898.85
2019-05-17T02:52:16.090Z,97895.64
2019-05-17T02:53:18.728Z,97898.31
2019-05-17T02:54:23.451Z,97897.52
2019-05-17T02:55:26.023Z,97893.79
2019-05-17T02:56:28.649Z,97897.80
2019-05-17T02:57:34.396Z,97894.08
2019-05-17T02:58:36.310Z,97897.59
2019-05-17T02:59:43.309Z,97897.05
2019-05-17T03:00:45.695Z,97893.33
2019-05-17T03:01:48.815Z,97892.75
2019-05-17T03:02:53.675Z,97889.56
2019-05-17T03:03:55.864Z,97892.75
2019-05-17T03:04:58.258Z,97890.06
2019-05-17T03:06:03.068Z,97886.89
2019-05-17T03:07:05.357Z,97888.81
2019-05-17T03:08:08.120Z,97889.61
2019-05-17T03:09:12.509Z,97886.13
2019-05-17T03:10:24.169Z,97884.80
2019-05-17T03:11:22.604Z,97884.58
2019-05-17T03:12:25.133Z,97886.42
2019-05-17T03:13:27.375Z,97888.59
2019-05-17T03:14:32.798Z,97893.62
2019-05-17T03:15:37.773Z,97893.95
2019-05-17T03:16:43.018Z,97894.23
2019-05-17T03:17:45.075Z,97894.23
2019-05-17T03:18:47.585Z,97889.39
2019-05-17T03:19:53.034Z,97889.93
2019-05-17T03:20:57.295Z,97888.89
2019-05-17T03:22:04.195Z,97891.56
2019-05-17T03:23:04.292Z,97889.39
2019-05-17T03:24:07.244Z,97893.19
2019-05-17T03:25:09.036Z,97892.14
2019-05-17T03:26:13.043Z,97891.34
2019-05-17T03:27:17.414Z,97893.19
2019-05-17T03:28:23.249Z,97895.66
2019-05-17T03:29:24.200Z,97898.11
2019-05-17T03:30:26.705Z,97897.28
2019-05-17T03:31:35.995Z,97901.30
2019-05-17T03:32:36.353Z,97893.05
2019-05-17T03:33:39.272Z,97901.59
2019-05-17T03:34:44.886Z,97902.42
2019-05-17T03:35:47.536Z,97902.42
2019-05-17T03:36:55.799Z,97905.09
2019-05-17T03:37:54.486Z,97905.39
2019-05-17T03:38:57.028Z,97907.53
2019-05-17T03:39:58.946Z,97902.71
2019-05-17T03:41:17.023Z,97908.06
2019-05-17T03:42:07.738Z,97910.20
2019-05-17T03:43:13.825Z,97905.69
2019-05-17T03:44:17.766Z,97907.53
2019-05-17T03:45:22.608Z,97912.66
2019-05-17T03:46:25.181Z,97913.20
2019-05-17T03:47:29.072Z,97910.74
2019-05-17T03:48:33.351Z,97910.53
2019-05-17T03:49:39.375Z,97909.98
2019-05-17T03:50:43.363Z,97905.25
2019-05-17T03:51:44.865Z,97910.28
2019-05-17T03:52:48.495Z,97905.97
2019-05-17T03:53:53.131Z,97907.31
2019-05-17T03:54:57.901Z,97910.53
2019-05-17T03:56:02.949Z,97907.85
2019-05-17T03:57:04.767Z,97903.84
2019-05-17T03:58:07.561Z,97905.47
2019-05-17T03:59:12.968Z,97909.98
2019-05-17T04:00:16.999Z,97912.66
2019-05-17T04:01:22.955Z,97907.61
2019-05-17T04:02:25.188Z,97912.16
2019-05-17T04:03:31.106Z,97907.85
2019-05-17T04:04:33.511Z,97906.73
2019-05-17T04:05:37.258Z,97911.03
2019-05-17T04:06:39.053Z,97916.39
2019-05-17T04:07:43.432Z,97906.73
2019-05-17T04:08:45.622Z,97911.03
2019-05-17T04:09:47.893Z,97910.53
2019-05-17T04:10:52.732Z,97911.33
2019-05-17T04:11:54.903Z,97908.65
2019-05-17T04:12:57.285Z,97912.08
2019-05-17T04:14:02.600Z,97909.62
2019-05-17T04:15:05.066Z,97909.19
2019-05-17T04:16:09.621Z,97911.33
2019-05-17T04:17:13.435Z,97906.80
2019-05-17T04:18:16.045Z,97909.19
2019-05-17T04:19:18.329Z,97911.62
2019-05-17T04:20:22.408Z,97909.48
2019-05-17T04:21:24.452Z,97908.95
2019-05-17T04:22:27.808Z,97907.02
2019-05-17T04:23:34.027Z,97907.31
2019-05-17T04:24:35.681Z,97911.25
2019-05-17T04:25:43.301Z,97910.45
2019-05-17T04:26:45.646Z,97908.74
2019-05-17T04:27:48.510Z,97912.14
2019-05-17T04:28:53.222Z,97905.62
2019-05-17T04:29:56.990Z,97907.48
2019-05-17T04:31:02.736Z,97910.27
2019-05-17T04:32:05.731Z,97909.84
2019-05-17T04:33:08.136Z,97908.70
2019-05-17T04:34:13.469Z,97905.38
2019-05-17T04:35:16.368Z,97911.03
2019-05-17T04:36:22.266Z,97917.69
2019-05-17T04:37:23.565Z,97907.45
2019-05-17T04:38:26.519Z,97916.73
2019-05-17T04:39:32.506Z,97915.31
2019-05-17T04:40:35.810Z,97912.56
2019-05-17T04:41:45.588Z,97909.72
2019-05-17T04:42:44.888Z,97909.61
2019-05-17T04:43:52.925Z,97907.09
2019-05-17T04:44:53.852Z,97909.44
2019-05-17T04:45:56.621Z,97912.95
2019-05-17T04:47:02.767Z,97912.36
2019-05-17T04:48:05.619Z,97911.53
2019-05-17T04:49:09.528Z,97913.91
2019-05-17T04:50:14.312Z,97912.45
2019-05-17T04:51:17.410Z,97914.95
2019-05-17T04:52:22.759Z,97910.61
2019-05-17T04:53:27.266Z,97920.48
2019-05-17T04:54:29.168Z,97908.95
2019-05-17T04:55:34.329Z,97908.95
2019-05-17T04:56:36.483Z,97909.20
2019-05-17T04:57:38.554Z,97906.19
2019-05-17T04:58:42.890Z,97908.58
2019-05-17T04:59:46.471Z,97908.48
2019-05-17T05:00:48.639Z,97911.78
2019-05-17T05:01:53.792Z,97913.54
2019-05-17T05:02:56.332Z,97914.58
2019-05-17T05:04:03.081Z,97913.66
2019-05-17T05:05:05.814Z,97914.28
2019-05-17T05:06:08.974Z,97912.87
2019-05-17T05:07:13.791Z,97912.37
2019-05-17T05:08:16.609Z,97913.13
2019-05-17T05:09:19.571Z,97908.32
2019-05-17T05:10:22.655Z,97905.51
2019-05-17T05:11:26.163Z,97906.19
2019-05-17T05:12:28.545Z,97904.89
2019-05-17T05:13:33.332Z,97904.80
2019-05-17T05:14:35.010Z,97909.02
2019-05-17T05:15:43.373Z,97905.63
2019-05-17T05:16:45.972Z,97905.09
2019-05-17T05:17:48.824Z,97912.82
2019-05-17T05:18:52.293Z,97907.05
2019-05-17T05:19:57.028Z,97910.77
2019-05-17T05:20:59.697Z,97937.70
2019-05-17T05:22:04.613Z,97921.05
2019-05-17T05:23:09.126Z,97916.75
2019-05-17T05:24:11.696Z,97909.34
2019-05-17T05:25:14.705Z,97922.84
2019-05-17T05:26:18.825Z,97919.13
2019-05-17T05:27:22.307Z,97916.45
2019-05-17T05:28:24.622Z,97910.69
2019-05-17T05:29:27.044Z,97912.02
2019-05-17T05:30:29.168Z,97909.52
2019-05-17T05:31:32.910Z,97915.45
2019-05-17T05:32:36.083Z,97910.91
2019-05-17T05:33:39.231Z,97915.00
2019-05-17T05:34:42.947Z,97909.66
2019-05-17T05:35:46.512Z,97908.86
2019-05-17T05:36:48.451Z,97916.34
2019-05-17T05:37:52.550Z,97912.50
2019-05-17T05:38:57.660Z,97916.12
2019-05-17T05:40:02.095Z,97914.20
2019-05-17T05:41:04.940Z,97910.78
2019-05-17T05:42:11.576Z,97909.11
2019-05-17T05:43:12.280Z,97912.20
2019-05-17T05:44:15.510Z,97910.70
2019-05-17T05:45:17.911Z,97914.24
2019-05-17T05:46:22.386Z,97908.81
2019-05-17T05:47:26.283Z,97923.59
2019-05-17T05:48:28.567Z,97919.08
2019-05-17T05:49:34.716Z,97924.34
2019-05-17T05:50:36.883Z,97927.02
2019-05-17T05:51:38.626Z,97927.61
2019-05-17T05:52:42.358Z,97933.13
2019-05-17T05:53:46.912Z,97934.17
2019-05-17T05:54:52.041Z,97935.50
2019-05-17T05:55:54.766Z,97929.50
2019-05-17T05:56:58.715Z,97928.61
2019-05-17T05:58:03.063Z,97933.88
2019-05-17T05:59:05.933Z,97932.75
2019-05-17T06:00:12.845Z,97932.95
2019-05-17T06:01:15.401Z,97934.47
2019-05-17T06:02:18.779Z,97935.33
2019-05-17T06:03:22.516Z,97936.08
2019-05-17T06:04:25.161Z,97938.13
2019-05-17T06:05:28.297Z,97933.88
2019-05-17T06:06:32.177Z,97940.20
2019-05-17T06:07:34.720Z,97941.55
2019-05-17T06:08:37.054Z,97940.00
2019-05-17T06:09:42.231Z,97933.41
2019-05-17T06:10:45.953Z,97944.69
2019-05-17T06:11:48.229Z,97942.61
2019-05-17T06:12:53.618Z,97937.88
2019-05-17T06:13:56.245Z,97938.47
2019-05-17T06:14:59.078Z,97941.31
2019-05-17T06:16:02.891Z,97946.96
2019-05-17T06:17:06.515Z,97931.75
2019-05-17T06:18:08.734Z,97947.25
2019-05-17T06:19:11.655Z,97946.94
2019-05-17T06:20:16.126Z,97946.32
2019-05-17T06:21:18.636Z,97945.19
2019-05-17T06:22:22.381Z,97952.29
2019-05-17T06:23:25.349Z,97943.52
2019-05-17T06:24:27.857Z,97948.42
2019-05-17T06:25:33.770Z,97948.30
2019-05-17T06:26:36.035Z,97951.89
2019-05-17T06:27:41.355Z,97949.71
2019-05-17T06:28:43.311Z,97945.48
2019-05-17T06:29:45.487Z,97947.71
2019-05-17T06:30:47.448Z,97948.84
2019-05-17T06:31:51.855Z,97948.17
2019-05-17T06:32:56.594Z,97947.88
2019-05-17T06:33:58.571Z,97950.64
2019-05-17T06:35:02.029Z,97952.27
2019-05-17T06:36:05.574Z,97952.72
2019-05-17T06:37:08.213Z,97951.89
2019-05-17T06:38:12.152Z,97947.88
2019-05-17T06:39:15.035Z,97951.93
2019-05-17T06:40:17.327Z,97953.44
2019-05-17T06:41:21.533Z,97954.39
2019-05-17T06:42:37.355Z,97953.89
2019-05-17T06:43:28.280Z,97953.65
2019-05-17T06:44:32.455Z,97953.27
2019-05-17T06:45:35.187Z,97956.06
2019-05-17T06:46:41.912Z,97957.08
2019-05-17T06:47:44.276Z,97959.45
2019-05-17T06:48:48.434Z,97959.16
2019-05-17T06:49:53.480Z,97962.34
2019-05-17T06:50:55.065Z,97962.67
2019-05-17T06:51:57.639Z,97962.88
2019-05-17T06:53:02.913Z,97966.50
2019-05-17T06:54:04.619Z,97963.30
2019-05-17T06:55:09.032Z,97968.34
2019-05-17T06:56:12.827Z,97967.31
2019-05-17T06:57:15.292Z,97967.84
2019-05-17T06:58:18.340Z,97970.06
2019-05-17T06:59:20.958Z,97965.25
2019-05-17T07:00:24.068Z,97967.19
2019-05-17T07:01:26.718Z,97972.62
2019-05-17T07:02:30.922Z,97975.41
2019-05-17T07:03:33.037Z,97974.16
2019-05-17T07:04:35.786Z,97976.70
2019-05-17T07:05:46.278Z,97971.12
2019-05-17T07:07:07.789Z,97980.05
2019-05-17T07:08:12.479Z,97976.92
2019-05-17T07:09:15.203Z,97979.27
2019-05-17T07:10:19.610Z,97976.67
2019-05-17T07:11:22.210Z,97979.14
2019-05-17T07:12:26.966Z,97979.35
2019-05-17T07:13:30.616Z,97979.64
2019-05-17T07:14:33.846Z,97976.97
2019-05-17T07:15:44.724Z,97980.56
2019-05-17T07:16:40.422Z,97978.69
2019-05-17T07:17:42.860Z,97974.75
2019-05-17T07:18:45.889Z,97980.73
2019-05-17T07:19:50.589Z,97976.47
2019-05-17T07:20:52.701Z,97981.31
2019-05-17T07:21:55.128Z,97975.75
2019-05-17T07:23:00.237Z,97979.52
2019-05-17T07:24:04.318Z,97973.66
2019-05-17T07:25:10.480Z,97980.44
2019-05-17T07:26:12.218Z,97971.91
2019-05-17T07:27:14.750Z,97973.83
2019-05-17T07:28:19.779Z,97977.92
2019-05-17T07:29:22.418Z,97977.71
2019-05-17T07:30:25.006Z,97988.50
2019-05-17T07:31:29.623Z,97978.38
2019-05-17T07:32:32.376Z,97975.41
2019-05-17T07:33:35.224Z,97982.98
2019-05-17T07:34:40.111Z,97977.62
2019-05-17T07:35:42.653Z,97976.91
2019-05-17T07:36:45.404Z,97980.92
2019-05-17T07:37:49.933Z,97978.54
2019-05-17T07:38:52.359Z,97980.09
2019-05-17T07:40:01.325Z,97981.52
2019-05-17T07:40:59.688Z,97983.14
2019-05-17T07:42:02.579Z,97981.30
2019-05-17T07:43:10.491Z,97982.72
2019-05-17T07:44:11.237Z,97976.61
2019-05-17T07:45:16.239Z,97978.78
2019-05-17T07:46:20.649Z,97979.37
2019-05-17T07:47:23.265Z,97978.64
2019-05-17T07:48:25.539Z,97978.43
2019-05-17T07:49:31.187Z,97983.66
2019-05-17T07:50:33.766Z,97978.59
2019-05-17T07:51:39.613Z,97980.52
2019-05-17T07:52:42.787Z,97979.80
2019-05-17T07:53:49.489Z,97976.28
2019-05-17T07:54:55.614Z,97973.69
2019-05-17T07:55:59.640Z,97976.95
2019-05-17T07:57:03.787Z,97973.25
2019-05-17T07:58:05.681Z,97979.48
2019-05-17T07:59:09.557Z,97980.53
2019-05-17T08:00:13.899Z,97977.94
2019-05-17T08:01:20.300Z,97979.27
2019-05-17T08:02:22.744Z,97980.69
2019-05-17T08:03:25.711Z,97987.17
2019-05-17T08:04:29.909Z,97987.67
2019-05-17T08:05:32.793Z,97992.27
2019-05-17T08:06:35.387Z,97983.16
2019-05-17T08:07:40.195Z,97985.08
2019-05-17T08:08:42.397Z,97983.23
2019-05-17T08:09:44.099Z,97985.16
2019-05-17T08:10:46.497Z,97984.32
2019-05-17T08:11:50.221Z,97984.32
2019-05-17T08:12:54.353Z,97982.05
2019-05-17T08:13:59.785Z,97985.73
2019-05-17T08:15:04.768Z,97990.88
2019-05-17T08:16:06.941Z,97989.03
2019-05-17T08:17:10.557Z,97983.97
2019-05-17T08:18:13.250Z,97986.34
2019-05-17T08:19:15.924Z,97984.26
2019-05-17T08:20:20.367Z,97986.94
2019-05-17T08:21:22.800Z,97991.24
2019-05-17T08:22:24.556Z,97986.50
2019-05-17T08:23:27.219Z,97990.52
2019-05-17T08:24:30.326Z,97987.59
2019-05-17T08:25:33.096Z,97991.94
2019-05-17T08:26:40.312Z,97993.78
2019-05-17T08:27:45.729Z,97987.38
2019-05-17T08:28:49.900Z,97993.02
2019-05-17T08:29:52.882Z,97991.39
2019-05-17T08:30:55.351Z,97998.38
2019-05-17T08:31:57.796Z,97992.73
2019-05-17T08:33:01.021Z,97995.95
2019-05-17T08:34:04.600Z,97994.69
2019-05-17T08:35:07.402Z,98002.73
2019-05-17T08:36:09.406Z,98001.39
2019-05-17T08:37:11.870Z,98007.55
2019-05-17T08:38:14.584Z,98002.41
2019-05-17T08:39:17.152Z,98001.89
2019-05-17T08:40:20.218Z,98001.14
2019-05-17T08:41:24.216Z,98006.75
2019-05-17T08:42:25.924Z,98009.71
2019-05-17T08:43:39.526Z,98003.23
2019-05-17T08:44:33.353Z,98006.75
2019-05-17T08:45:36.103Z,98002.19
2019-05-17T08:46:39.490Z,98008.08
2019-05-17T08:47:41.859Z,98009.79
2019-05-17T08:48:44.316Z,98003.60
2019-05-17T08:49:50.019Z,98006.50
2019-05-17T08:50:54.388Z,98008.45
2019-05-17T08:51:59.474Z,98011.42
2019-05-17T08:53:02.122Z,98010.59
2019-05-17T08:54:06.225Z,98006.57
2019-05-17T08:55:09.780Z,98006.35
2019-05-17T08:56:14.955Z,98010.16
2019-05-17T08:57:20.237Z,98012.30
2019-05-17T08:58:22.563Z,98011.79
2019-05-17T08:59:26.069Z,98009.11
2019-05-17T09:00:31.352Z,98012.91
2019-05-17T09:01:38.544Z,98012.37
2019-05-17T09:02:41.260Z,98014.03
2019-05-17T09:03:43.569Z,98016.72
2019-05-17T09:04:49.617Z,98012.16
2019-05-17T09:05:52.846Z,98014.84
2019-05-17T09:06:55.783Z,98014.62
2019-05-17T09:08:00.074Z,98015.42
2019-05-17T09:09:05.075Z,98011.11
2019-05-17T09:10:09.953Z,98012.52
2019-05-17T09:11:12.139Z,98013.35
2019-05-17T09:12:14.460Z,98016.25
2019-05-17T09:13:19.678Z,98012.52
2019-05-17T09:14:21.987Z,98011.47
2019-05-17T09:15:24.349Z,98008.58
2019-05-17T09:16:26.576Z,98009.41
2019-05-17T09:17:30.035Z,98013.72
2019-05-17T09:18:32.027Z,98001.19
2019-05-17T09:19:34.391Z,98007.89
2019-05-17T09:20:40.647Z,98006.91
2019-05-17T09:21:42.124Z,98008.25
2019-05-17T09:22:46.009Z,98012.02
2019-05-17T09:23:50.297Z,98005.64
2019-05-17T09:24:52.664Z,98008.61
2019-05-17T09:25:55.216Z,98010.03
2019-05-17T09:26:59.726Z,98007.05
2019-05-17T09:28:01.176Z,98002.78
2019-05-17T09:29:04.460Z,98005.47
2019-05-17T09:30:09.712Z,98007.42
2019-05-17T09:31:13.061Z,98007.64
2019-05-17T09:32:15.374Z,98004.74
2019-05-17T09:33:19.216Z,98005.83
2019-05-17T09:34:21.842Z,98007.78
2019-05-17T09:35:24.494Z,98000.80
2019-05-17T09:36:26.218Z,98012.31
2019-05-17T09:37:30.339Z,98010.75
2019-05-17T09:38:32.745Z,98016.11
2019-05-17T09:39:35.486Z,98014.34
2019-05-17T09:40:39.881Z,98010.61
2019-05-17T09:41:42.479Z,98007.67
2019-05-17T09:42:45.307Z,98004.56
2019-05-17T09:43:49.553Z,98004.27
2019-05-17T09:44:52.342Z,98006.19
2019-05-17T09:45:54.930Z,98005.14
2019-05-17T09:46:59.364Z,97997.09
2019-05-17T09:48:02.113Z,97997.42
2019-05-17T09:49:04.213Z,98005.21
2019-05-17T09:50:10.015Z,98010.28
2019-05-17T09:51:13.488Z,98007.89
2019-05-17T09:52:15.312Z,98002.31
2019-05-17T09:53:20.174Z,98002.60
2019-05-17T09:54:38.256Z,98004.02
2019-05-17T09:55:27.337Z,97999.99
2019-05-17T09:56:30.300Z,98002.96
2019-05-17T09:57:32.141Z,98002.96
2019-05-17T09:58:34.539Z,98004.63
2019-05-17T09:59:37.195Z,98004.70
2019-05-17T10:00:39.771Z,98004.98
2019-05-17T10:01:42.407Z,98005.78
2019-05-17T10:02:45.054Z,98005.78
2019-05-17T10:03:47.385Z,98003.64
2019-05-17T10:04:50.444Z,98015.23
2019-05-17T10:05:53.161Z,98008.31
2019-05-17T10:06:55.349Z,98005.92
2019-05-17T10:08:00.040Z,98003.78
2019-05-17T10:09:04.994Z,98011.36
2019-05-17T10:10:10.418Z,98004.87
2019-05-17T10:11:13.917Z,98005.48
2019-05-17T10:12:15.825Z,98012.19
2019-05-17T10:13:20.206Z,98007.11
2019-05-17T10:14:28.183Z,98015.16
2019-05-17T10:15:26.720Z,98017.84
2019-05-17T10:16:30.781Z,98011.72
2019-05-17T10:17:33.480Z,98013.05
2019-05-17T10:18:37.187Z,98017.91
2019-05-17T10:19:40.248Z,98025.73
2019-05-17T10:20:42.967Z,98012.61
2019-05-17T10:21:45.334Z,98017.44
2019-05-17T10:22:50.455Z,98014.75
2019-05-17T10:23:54.813Z,98018.56
2019-05-17T10:24:57.391Z,98019.39
2019-05-17T10:25:59.857Z,98023.12
2019-05-17T10:27:03.597Z,98024.20
2019-05-17T10:28:09.823Z,98030.41
2019-05-17T10:29:12.548Z,98021.02
2019-05-17T10:30:16.491Z,98017.00
2019-05-17T10:31:19.721Z,98023.70
2019-05-17T10:32:22.663Z,98019.32
2019-05-17T10:33:24.950Z,98022.00
2019-05-17T10:34:29.457Z,98020.12
2019-05-17T10:35:32.484Z,98017.76
2019-05-17T10:36:35.086Z,98027.44
2019-05-17T10:37:40.365Z,98033.09
2019-05-17T10:38:42.270Z,98029.89
2019-05-17T10:39:45.862Z,98029.35
2019-05-17T10:40:49.904Z,98023.48
2019-05-17T10:41:53.965Z,98027.50
2019-05-17T10:42:56.077Z,98030.69
2019-05-17T10:43:58.514Z,98027.50
2019-05-17T10:45:05.557Z,98026.45
2019-05-17T10:46:10.326Z,98029.89
2019-05-17T10:47:13.459Z,98025.40
2019-05-17T10:48:16.573Z,98026.74
2019-05-17T10:49:20.184Z,98021.66
2019-05-17T10:50:22.722Z,98026.74
2019-05-17T10:51:24.829Z,98024.05
2019-05-17T10:52:29.872Z,98027.03
2019-05-17T10:53:32.133Z,98020.33
2019-05-17T10:54:34.620Z,98034.34
2019-05-17T10:55:36.737Z,98028.98
2019-05-17T10:56:40.552Z,98026.81
2019-05-17T10:57:44.452Z,98038.59
2019-05-17T10:58:49.312Z,98031.34
2019-05-17T10:59:54.303Z,98034.02
2019-05-17T11:00:56.396Z,98030.00
2019-05-17T11:01:59.678Z,98022.72
2019-05-17T11:03:03.066Z,98031.88
2019-05-17T11:04:06.876Z,98027.31
2019-05-17T11:05:10.557Z,98027.31
2019-05-17T11:06:13.477Z,98028.15
2019-05-17T11:07:15.468Z,98022.50
2019-05-17T11:08:19.706Z,98025.91
2019-05-17T11:09:23.633Z,98021.38
2019-05-17T11:10:25.987Z,98021.44
2019-05-17T11:11:28.259Z,98024.89
2019-05-17T11:12:30.316Z,98025.98
2019-05-17T11:13:33.090Z,98032.17
2019-05-17T11:14:52.197Z,98028.98
2019-05-17T11:15:42.431Z,98036.70
2019-05-17T11:16:45.104Z,98035.97
2019-05-17T11:17:47.698Z,98035.91
2019-05-17T11:18:51.033Z,98038.81
2019-05-17T11:19:53.852Z,98037.25
2019-05-17T11:20:58.943Z,98031.05
2019-05-17T11:22:02.189Z,98044.24
2019-05-17T11:23:06.509Z,98037.53
2019-05-17T11:24:09.266Z,98031.05
2019-05-17T11:25:13.322Z,98027.64
2019-05-17T11:26:15.518Z,98029.71
2019-05-17T11:27:19.705Z,98035.70
2019-05-17T11:28:22.755Z,98028.70
2019-05-17T11:29:25.231Z,98037.48
2019-05-17T11:30:27.226Z,98032.50
2019-05-17T11:31:31.903Z,98026.46
2019-05-17T11:32:34.769Z,98024.77
2019-05-17T11:33:36.456Z,98034.62
2019-05-17T11:34:39.020Z,98029.26
2019-05-17T11:35:41.877Z,98027.16
2019-05-17T11:36:43.831Z,98032.81
2019-05-17T11:37:46.351Z,98038.23
2019-05-17T11:38:49.177Z,98035.92
2019-05-17T11:39:51.599Z,98040.55
2019-05-17T11:40:53.881Z,98038.67
2019-05-17T11:41:57.405Z,98038.96
2019-05-17T11:43:01.233Z,98041.97
2019-05-17T11:44:05.630Z,98040.30
2019-05-17T11:45:08.584Z,98039.79
2019-05-17T11:46:10.373Z,98034.72
2019-05-17T11:47:13.724Z,98036.06
2019-05-17T11:48:19.384Z,98034.14
2019-05-17T11:49:22.880Z,98035.26
2019-05-17T11:50:28.728Z,98038.23
2019-05-17T11:51:30.756Z,98037.69
2019-05-17T11:52:35.273Z,98036.13
2019-05-17T11:53:37.841Z,98032.58
2019-05-17T11:54:40.191Z,98035.77
2019-05-17T11:55:42.942Z,98033.38
2019-05-17T11:56:45.490Z,98038.73
2019-05-17T11:57:47.787Z,98032.86
2019-05-17T11:58:50.210Z,98033.95
2019-05-17T11:59:52.486Z,98037.47
2019-05-17T12:00:56.466Z,98032.61
2019-05-17T12:02:00.762Z,98034.78
2019-05-17T12:03:03.593Z,98031.53
2019-05-17T12:04:05.920Z,98033.95
2019-05-17T12:05:10.855Z,98031.59
2019-05-17T12:06:13.658Z,98030.77
2019-05-17T12:07:17.609Z,98028.66
2019-05-17T12:08:20.352Z,98027.79
2019-05-17T12:09:36.516Z,98022.20
2019-05-17T12:10:28.037Z,98026.74
2019-05-17T12:11:32.586Z,98023.77
2019-05-17T12:12:35.152Z,98029.20
2019-05-17T12:13:37.608Z,98021.44
2019-05-17T12:14:40.591Z,98018.25
2019-05-17T12:15:45.411Z,98018.25
2019-05-17T12:16:49.318Z,98015.25
2019-05-17T12:17:51.640Z,98021.66
2019-05-17T12:18:53.403Z,98020.10
2019-05-17T12:19:56.115Z,98019.27
2019-05-17T12:20:58.629Z,98016.91
2019-05-17T12:22:00.527Z,98022.86
2019-05-17T12:23:03.865Z,98010.78
2019-05-17T12:24:07.483Z,98017.01
2019-05-17T12:25:11.418Z,98016.14
2019-05-17T12:26:14.403Z,98010.88